sensor_id;sensor_type;location;lat;lon;timestamp;P1;durP1;ratioP1;P2;durP2;ratioP2
21639;SDS011;10981;45.462;10.974;2023-02-18T00:01:41;160.40;;;81.53;;
21639;SDS011;10981;45.462;10.974;2023-02-18T00:04:09;154.30;;;79.88;;
21639;SDS011;10981;45.462;10.974;2023-02-18T00:06:36;166.48;;;82.47;;
21639;SDS011;10981;45.462;10.974;2023-02-18T00:09:05;165.40;;;82.80;;
21639;SDS011;10981;45.462;10.974;2023-02-18T00:11:35;165.18;;;81.43;;
21639;SDS011;10981;45.462;10.974;2023-02-18T00:14:04;151.52;;;79.68;;
21639;SDS011;10981;45.462;10.974;2023-02-18T00:16:32;166.43;;;82.10;;
21639;SDS011;10981;45.462;10.974;2023-02-18T00:19:03;155.30;;;79.28;;
21639;SDS011;10981;45.462;10.974;2023-02-18T00:21:32;159.25;;;78.90;;
21639;SDS011;10981;45.462;10.974;2023-02-18T00:24:00;161.60;;;77.25;;
21639;SDS011;10981;45.462;10.974;2023-02-18T00:26:28;168.48;;;83.10;;
21639;SDS011;10981;45.462;10.974;2023-02-18T00:28:56;163.50;;;81.65;;
21639;SDS011;10981;45.462;10.974;2023-02-18T00:31:27;153.45;;;79.82;;
21639;SDS011;10981;45.462;10.974;2023-02-18T00:33:58;158.45;;;77.80;;
21639;SDS011;10981;45.462;10.974;2023-02-18T00:36:27;149.80;;;76.53;;
21639;SDS011;10981;45.462;10.974;2023-02-18T00:38:56;164.93;;;77.43;;
21639;SDS011;10981;45.462;10.974;2023-02-18T00:41:25;157.18;;;77.55;;
21639;SDS011;10981;45.462;10.974;2023-02-18T00:43:57;141.73;;;74.10;;
21639;SDS011;10981;45.462;10.974;2023-02-18T00:46:26;138.48;;;73.05;;
21639;SDS011;10981;45.462;10.974;2023-02-18T00:48:54;154.88;;;74.82;;
21639;SDS011;10981;45.462;10.974;2023-02-18T00:51:22;160.90;;;79.13;;
21639;SDS011;10981;45.462;10.974;2023-02-18T00:53:51;158.50;;;76.53;;
21639;SDS011;10981;45.462;10.974;2023-02-18T00:56:19;154.68;;;76.40;;
21639;SDS011;10981;45.462;10.974;2023-02-18T00:58:47;172.68;;;82.72;;
21639;SDS011;10981;45.462;10.974;2023-02-18T01:01:15;170.75;;;84.07;;
21639;SDS011;10981;45.462;10.974;2023-02-18T01:03:44;166.75;;;82.00;;
21639;SDS011;10981;45.462;10.974;2023-02-18T01:06:13;168.57;;;83.40;;
21639;SDS011;10981;45.462;10.974;2023-02-18T01:08:41;169.75;;;84.00;;
21639;SDS011;10981;45.462;10.974;2023-02-18T01:11:10;153.63;;;77.05;;
21639;SDS011;10981;45.462;10.974;2023-02-18T01:13:39;178.13;;;83.10;;
21639;SDS011;10981;45.462;10.974;2023-02-18T01:16:07;167.13;;;84.88;;
21639;SDS011;10981;45.462;10.974;2023-02-18T01:18:36;183.50;;;89.95;;
21639;SDS011;10981;45.462;10.974;2023-02-18T01:21:04;185.38;;;88.97;;
21639;SDS011;10981;45.462;10.974;2023-02-18T01:23:38;184.25;;;88.88;;
21639;SDS011;10981;45.462;10.974;2023-02-18T01:26:06;184.10;;;88.32;;
21639;SDS011;10981;45.462;10.974;2023-02-18T01:28:37;196.50;;;93.15;;
21639;SDS011;10981;45.462;10.974;2023-02-18T01:31:06;184.65;;;90.00;;
21639;SDS011;10981;45.462;10.974;2023-02-18T01:33:35;189.32;;;91.57;;
21639;SDS011;10981;45.462;10.974;2023-02-18T01:36:03;183.38;;;87.22;;
21639;SDS011;10981;45.462;10.974;2023-02-18T01:38:31;197.65;;;93.45;;
21639;SDS011;10981;45.462;10.974;2023-02-18T01:40:59;191.00;;;90.28;;
21639;SDS011;10981;45.462;10.974;2023-02-18T01:43:27;185.52;;;88.72;;
21639;SDS011;10981;45.462;10.974;2023-02-18T01:48:31;181.77;;;90.45;;
21639;SDS011;10981;45.462;10.974;2023-02-18T01:53:39;182.50;;;87.68;;
21639;SDS011;10981;45.462;10.974;2023-02-18T01:56:15;185.52;;;90.15;;
21639;SDS011;10981;45.462;10.974;2023-02-18T01:58:44;183.35;;;87.03;;
21639;SDS011;10981;45.462;10.974;2023-02-18T02:01:12;181.38;;;87.70;;
21639;SDS011;10981;45.462;10.974;2023-02-18T02:03:40;187.85;;;86.30;;
21639;SDS011;10981;45.462;10.974;2023-02-18T02:06:13;175.43;;;82.78;;
21639;SDS011;10981;45.462;10.974;2023-02-18T02:08:42;170.43;;;82.32;;
21639;SDS011;10981;45.462;10.974;2023-02-18T02:11:22;169.57;;;81.43;;
21639;SDS011;10981;45.462;10.974;2023-02-18T02:14:37;168.13;;;83.00;;
21639;SDS011;10981;45.462;10.974;2023-02-18T02:27:02;164.13;;;81.50;;
21639;SDS011;10981;45.462;10.974;2023-02-18T02:34:54;181.40;;;86.57;;
21639;SDS011;10981;45.462;10.974;2023-02-18T02:37:26;166.45;;;83.63;;
21639;SDS011;10981;45.462;10.974;2023-02-18T02:45:03;188.05;;;87.63;;
21639;SDS011;10981;45.462;10.974;2023-02-18T02:50:07;163.60;;;82.60;;
21639;SDS011;10981;45.462;10.974;2023-02-18T02:52:40;157.88;;;73.38;;
21639;SDS011;10981;45.462;10.974;2023-02-18T02:55:11;153.20;;;75.75;;
21639;SDS011;10981;45.462;10.974;2023-02-18T02:57:44;147.30;;;72.23;;
21639;SDS011;10981;45.462;10.974;2023-02-18T03:00:19;158.00;;;79.20;;
21639;SDS011;10981;45.462;10.974;2023-02-18T03:08:04;153.45;;;78.43;;
21639;SDS011;10981;45.462;10.974;2023-02-18T03:10:40;162.13;;;81.85;;
21639;SDS011;10981;45.462;10.974;2023-02-18T03:18:39;156.55;;;77.40;;
21639;SDS011;10981;45.462;10.974;2023-02-18T03:21:24;163.35;;;78.20;;
21639;SDS011;10981;45.462;10.974;2023-02-18T03:23:57;173.73;;;79.57;;
21639;SDS011;10981;45.462;10.974;2023-02-18T03:26:27;180.45;;;86.72;;
21639;SDS011;10981;45.462;10.974;2023-02-18T03:28:57;182.98;;;88.18;;
21639;SDS011;10981;45.462;10.974;2023-02-18T03:31:27;171.98;;;84.72;;
21639;SDS011;10981;45.462;10.974;2023-02-18T03:34:19;188.30;;;89.88;;
21639;SDS011;10981;45.462;10.974;2023-02-18T03:36:44;188.88;;;89.78;;
21639;SDS011;10981;45.462;10.974;2023-02-18T03:39:14;198.40;;;89.82;;
21639;SDS011;10981;45.462;10.974;2023-02-18T03:41:43;202.60;;;93.38;;
21639;SDS011;10981;45.462;10.974;2023-02-18T03:44:11;193.48;;;92.30;;
21639;SDS011;10981;45.462;10.974;2023-02-18T03:46:40;185.07;;;89.03;;
21639;SDS011;10981;45.462;10.974;2023-02-18T03:49:12;179.73;;;88.25;;
21639;SDS011;10981;45.462;10.974;2023-02-18T03:51:40;177.57;;;84.18;;
21639;SDS011;10981;45.462;10.974;2023-02-18T03:54:08;174.18;;;84.38;;
21639;SDS011;10981;45.462;10.974;2023-02-18T03:56:39;174.77;;;85.10;;
21639;SDS011;10981;45.462;10.974;2023-02-18T03:59:08;170.32;;;80.75;;
21639;SDS011;10981;45.462;10.974;2023-02-18T04:01:38;176.23;;;85.25;;
21639;SDS011;10981;45.462;10.974;2023-02-18T04:04:06;176.15;;;83.82;;
21639;SDS011;10981;45.462;10.974;2023-02-18T04:06:34;174.43;;;81.70;;
21639;SDS011;10981;45.462;10.974;2023-02-18T04:09:02;171.07;;;80.18;;
21639;SDS011;10981;45.462;10.974;2023-02-18T04:11:35;170.70;;;83.73;;
21639;SDS011;10981;45.462;10.974;2023-02-18T04:14:04;183.65;;;86.20;;
21639;SDS011;10981;45.462;10.974;2023-02-18T04:16:31;169.40;;;83.65;;
21639;SDS011;10981;45.462;10.974;2023-02-18T04:18:59;173.63;;;84.43;;
21639;SDS011;10981;45.462;10.974;2023-02-18T04:21:27;174.80;;;86.35;;
21639;SDS011;10981;45.462;10.974;2023-02-18T04:23:55;188.20;;;91.20;;
21639;SDS011;10981;45.462;10.974;2023-02-18T04:26:23;205.82;;;92.90;;
21639;SDS011;10981;45.462;10.974;2023-02-18T04:28:51;190.88;;;93.55;;
21639;SDS011;10981;45.462;10.974;2023-02-18T04:31:19;190.82;;;87.88;;
21639;SDS011;10981;45.462;10.974;2023-02-18T04:33:47;184.80;;;87.40;;
21639;SDS011;10981;45.462;10.974;2023-02-18T04:36:14;192.07;;;90.60;;
21639;SDS011;10981;45.462;10.974;2023-02-18T04:38:42;178.55;;;86.90;;
21639;SDS011;10981;45.462;10.974;2023-02-18T04:41:10;195.32;;;93.70;;
21639;SDS011;10981;45.462;10.974;2023-02-18T04:43:38;195.23;;;92.50;;
21639;SDS011;10981;45.462;10.974;2023-02-18T04:46:06;191.23;;;93.10;;
21639;SDS011;10981;45.462;10.974;2023-02-18T04:48:34;185.40;;;88.50;;
21639;SDS011;10981;45.462;10.974;2023-02-18T04:51:02;196.57;;;94.28;;
21639;SDS011;10981;45.462;10.974;2023-02-18T04:53:30;207.02;;;98.40;;
21639;SDS011;10981;45.462;10.974;2023-02-18T04:55:58;195.57;;;95.72;;
21639;SDS011;10981;45.462;10.974;2023-02-18T04:58:26;194.10;;;93.57;;
21639;SDS011;10981;45.462;10.974;2023-02-18T05:00:57;230.07;;;104.78;;
21639;SDS011;10981;45.462;10.974;2023-02-18T05:03:26;222.25;;;104.10;;
21639;SDS011;10981;45.462;10.974;2023-02-18T05:05:53;221.05;;;106.65;;
21639;SDS011;10981;45.462;10.974;2023-02-18T05:08:21;243.43;;;112.68;;
21639;SDS011;10981;45.462;10.974;2023-02-18T05:10:49;250.10;;;110.15;;
21639;SDS011;10981;45.462;10.974;2023-02-18T05:13:17;279.00;;;110.80;;
21639;SDS011;10981;45.462;10.974;2023-02-18T05:15:45;248.15;;;109.93;;
21639;SDS011;10981;45.462;10.974;2023-02-18T05:18:13;286.25;;;113.72;;
21639;SDS011;10981;45.462;10.974;2023-02-18T05:20:42;325.30;;;116.47;;
21639;SDS011;10981;45.462;10.974;2023-02-18T05:23:10;344.10;;;113.97;;
21639;SDS011;10981;45.462;10.974;2023-02-18T05:25:37;282.50;;;113.05;;
21639;SDS011;10981;45.462;10.974;2023-02-18T05:28:05;283.90;;;111.70;;
21639;SDS011;10981;45.462;10.974;2023-02-18T05:30:36;273.80;;;113.95;;
21639;SDS011;10981;45.462;10.974;2023-02-18T05:33:04;244.18;;;110.80;;
21639;SDS011;10981;45.462;10.974;2023-02-18T05:35:32;270.90;;;116.53;;
21639;SDS011;10981;45.462;10.974;2023-02-18T05:37:59;337.42;;;114.78;;
21639;SDS011;10981;45.462;10.974;2023-02-18T05:40:27;351.60;;;112.20;;
21639;SDS011;10981;45.462;10.974;2023-02-18T05:42:55;294.67;;;111.38;;
21639;SDS011;10981;45.462;10.974;2023-02-18T05:45:23;317.13;;;111.18;;
21639;SDS011;10981;45.462;10.974;2023-02-18T05:47:51;287.25;;;109.88;;
21639;SDS011;10981;45.462;10.974;2023-02-18T05:50:19;240.10;;;111.30;;
21639;SDS011;10981;45.462;10.974;2023-02-18T05:52:47;254.38;;;109.45;;
21639;SDS011;10981;45.462;10.974;2023-02-18T05:55:15;250.40;;;107.85;;
21639;SDS011;10981;45.462;10.974;2023-02-18T05:57:42;347.08;;;118.13;;
21639;SDS011;10981;45.462;10.974;2023-02-18T06:00:10;382.05;;;112.95;;
21639;SDS011;10981;45.462;10.974;2023-02-18T06:02:38;247.10;;;108.50;;
21639;SDS011;10981;45.462;10.974;2023-02-18T06:05:07;236.73;;;106.63;;
21639;SDS011;10981;45.462;10.974;2023-02-18T06:07:36;250.68;;;110.90;;
21639;SDS011;10981;45.462;10.974;2023-02-18T06:10:04;271.02;;;110.57;;
21639;SDS011;10981;45.462;10.974;2023-02-18T06:12:32;239.00;;;109.75;;
21639;SDS011;10981;45.462;10.974;2023-02-18T06:15:00;268.10;;;109.18;;
21639;SDS011;10981;45.462;10.974;2023-02-18T06:17:28;242.23;;;107.55;;
21639;SDS011;10981;45.462;10.974;2023-02-18T06:19:55;229.63;;;105.70;;
21639;SDS011;10981;45.462;10.974;2023-02-18T06:22:23;248.18;;;103.60;;
21639;SDS011;10981;45.462;10.974;2023-02-18T06:24:51;234.23;;;102.35;;
21639;SDS011;10981;45.462;10.974;2023-02-18T06:27:19;249.30;;;106.45;;
21639;SDS011;10981;45.462;10.974;2023-02-18T06:29:47;228.25;;;104.38;;
21639;SDS011;10981;45.462;10.974;2023-02-18T06:32:15;346.20;;;104.30;;
21639;SDS011;10981;45.462;10.974;2023-02-18T06:34:43;262.02;;;103.18;;
21639;SDS011;10981;45.462;10.974;2023-02-18T06:37:11;273.38;;;105.07;;
21639;SDS011;10981;45.462;10.974;2023-02-18T06:39:39;316.42;;;102.00;;
21639;SDS011;10981;45.462;10.974;2023-02-18T06:42:08;329.45;;;103.80;;
21639;SDS011;10981;45.462;10.974;2023-02-18T06:44:35;340.70;;;103.90;;
21639;SDS011;10981;45.462;10.974;2023-02-18T06:47:03;321.30;;;109.32;;
21639;SDS011;10981;45.462;10.974;2023-02-18T06:49:32;363.50;;;107.93;;
21639;SDS011;10981;45.462;10.974;2023-02-18T06:52:00;319.17;;;107.50;;
21639;SDS011;10981;45.462;10.974;2023-02-18T06:54:27;335.90;;;109.40;;
21639;SDS011;10981;45.462;10.974;2023-02-18T06:56:55;249.20;;;107.90;;
21639;SDS011;10981;45.462;10.974;2023-02-18T06:59:23;375.23;;;109.32;;
21639;SDS011;10981;45.462;10.974;2023-02-18T07:01:51;340.85;;;108.93;;
21639;SDS011;10981;45.462;10.974;2023-02-18T07:04:19;279.05;;;106.55;;
21639;SDS011;10981;45.462;10.974;2023-02-18T07:06:47;316.45;;;109.95;;
21639;SDS011;10981;45.462;10.974;2023-02-18T07:09:15;291.02;;;106.97;;
21639;SDS011;10981;45.462;10.974;2023-02-18T07:11:43;329.48;;;116.35;;
21639;SDS011;10981;45.462;10.974;2023-02-18T07:14:10;285.17;;;107.55;;
21639;SDS011;10981;45.462;10.974;2023-02-18T07:16:38;247.15;;;104.38;;
21639;SDS011;10981;45.462;10.974;2023-02-18T07:19:06;252.77;;;106.50;;
21639;SDS011;10981;45.462;10.974;2023-02-18T07:21:34;226.05;;;106.50;;
21639;SDS011;10981;45.462;10.974;2023-02-18T07:24:02;260.63;;;110.32;;
21639;SDS011;10981;45.462;10.974;2023-02-18T07:26:30;237.68;;;109.10;;
21639;SDS011;10981;45.462;10.974;2023-02-18T07:28:57;264.65;;;108.93;;
21639;SDS011;10981;45.462;10.974;2023-02-18T07:31:25;291.45;;;105.95;;
21639;SDS011;10981;45.462;10.974;2023-02-18T07:33:53;273.10;;;104.07;;
21639;SDS011;10981;45.462;10.974;2023-02-18T07:36:21;253.55;;;104.25;;
21639;SDS011;10981;45.462;10.974;2023-02-18T07:38:49;287.00;;;107.63;;
21639;SDS011;10981;45.462;10.974;2023-02-18T07:41:18;263.05;;;109.63;;
21639;SDS011;10981;45.462;10.974;2023-02-18T07:43:46;228.40;;;100.00;;
21639;SDS011;10981;45.462;10.974;2023-02-18T07:46:14;257.35;;;105.85;;
21639;SDS011;10981;45.462;10.974;2023-02-18T07:48:44;228.90;;;104.85;;
21639;SDS011;10981;45.462;10.974;2023-02-18T07:51:12;280.88;;;103.30;;
21639;SDS011;10981;45.462;10.974;2023-02-18T07:53:40;314.90;;;104.07;;
21639;SDS011;10981;45.462;10.974;2023-02-18T07:56:08;228.25;;;99.90;;
21639;SDS011;10981;45.462;10.974;2023-02-18T07:58:36;353.92;;;105.00;;
21639;SDS011;10981;45.462;10.974;2023-02-18T08:01:11;255.35;;;102.32;;
21639;SDS011;10981;45.462;10.974;2023-02-18T08:03:41;287.58;;;103.57;;
21639;SDS011;10981;45.462;10.974;2023-02-18T08:06:17;268.48;;;98.30;;
21639;SDS011;10981;45.462;10.974;2023-02-18T08:08:46;278.75;;;98.47;;
21639;SDS011;10981;45.462;10.974;2023-02-18T08:11:17;297.90;;;100.93;;
21639;SDS011;10981;45.462;10.974;2023-02-18T08:13:46;270.75;;;96.65;;
21639;SDS011;10981;45.462;10.974;2023-02-18T08:16:15;259.98;;;97.10;;
21639;SDS011;10981;45.462;10.974;2023-02-18T08:18:43;229.55;;;97.07;;
21639;SDS011;10981;45.462;10.974;2023-02-18T08:21:11;249.30;;;96.63;;
21639;SDS011;10981;45.462;10.974;2023-02-18T08:23:39;222.52;;;101.38;;
21639;SDS011;10981;45.462;10.974;2023-02-18T08:26:07;254.13;;;97.93;;
21639;SDS011;10981;45.462;10.974;2023-02-18T08:28:41;252.52;;;95.72;;
21639;SDS011;10981;45.462;10.974;2023-02-18T08:31:18;220.52;;;97.72;;
21639;SDS011;10981;45.462;10.974;2023-02-18T08:33:47;268.33;;;98.63;;
21639;SDS011;10981;45.462;10.974;2023-02-18T08:36:15;247.60;;;100.47;;
21639;SDS011;10981;45.462;10.974;2023-02-18T08:38:43;217.48;;;100.43;;
21639;SDS011;10981;45.462;10.974;2023-02-18T08:41:11;236.25;;;97.38;;
21639;SDS011;10981;45.462;10.974;2023-02-18T08:43:40;220.77;;;101.53;;
21639;SDS011;10981;45.462;10.974;2023-02-18T08:46:09;232.32;;;97.13;;
21639;SDS011;10981;45.462;10.974;2023-02-18T08:48:42;214.90;;;100.22;;
21639;SDS011;10981;45.462;10.974;2023-02-18T08:51:11;270.50;;;99.65;;
21639;SDS011;10981;45.462;10.974;2023-02-18T08:53:39;223.30;;;98.60;;
21639;SDS011;10981;45.462;10.974;2023-02-18T08:56:08;238.43;;;97.85;;
21639;SDS011;10981;45.462;10.974;2023-02-18T08:58:38;228.50;;;96.88;;
21639;SDS011;10981;45.462;10.974;2023-02-18T09:01:07;235.68;;;95.20;;
21639;SDS011;10981;45.462;10.974;2023-02-18T09:03:36;219.80;;;100.25;;
21639;SDS011;10981;45.462;10.974;2023-02-18T09:06:04;219.45;;;98.63;;
21639;SDS011;10981;45.462;10.974;2023-02-18T09:08:32;223.57;;;101.15;;
21639;SDS011;10981;45.462;10.974;2023-02-18T09:11:00;235.65;;;102.93;;
21639;SDS011;10981;45.462;10.974;2023-02-18T09:13:31;227.85;;;102.15;;
21639;SDS011;10981;45.462;10.974;2023-02-18T09:16:00;230.70;;;101.70;;
21639;SDS011;10981;45.462;10.974;2023-02-18T09:18:30;220.55;;;98.85;;
21639;SDS011;10981;45.462;10.974;2023-02-18T09:20:58;214.02;;;99.88;;
21639;SDS011;10981;45.462;10.974;2023-02-18T09:23:27;227.18;;;98.40;;
21639;SDS011;10981;45.462;10.974;2023-02-18T09:25:56;242.27;;;109.82;;
21639;SDS011;10981;45.462;10.974;2023-02-18T09:28:24;231.63;;;101.72;;
21639;SDS011;10981;45.462;10.974;2023-02-18T09:30:52;237.32;;;102.15;;
21639;SDS011;10981;45.462;10.974;2023-02-18T09:33:22;226.85;;;99.72;;
21639;SDS011;10981;45.462;10.974;2023-02-18T09:35:50;236.82;;;102.88;;
21639;SDS011;10981;45.462;10.974;2023-02-18T09:38:17;241.00;;;101.68;;
21639;SDS011;10981;45.462;10.974;2023-02-18T09:40:49;236.73;;;103.65;;
21639;SDS011;10981;45.462;10.974;2023-02-18T09:46:05;218.52;;;96.15;;
21639;SDS011;10981;45.462;10.974;2023-02-18T09:48:34;231.45;;;97.38;;
21639;SDS011;10981;45.462;10.974;2023-02-18T09:51:02;219.15;;;97.85;;
21639;SDS011;10981;45.462;10.974;2023-02-18T09:53:30;226.82;;;98.57;;
21639;SDS011;10981;45.462;10.974;2023-02-18T09:55:58;222.80;;;98.30;;
21639;SDS011;10981;45.462;10.974;2023-02-18T09:58:28;225.90;;;99.00;;
21639;SDS011;10981;45.462;10.974;2023-02-18T10:01:10;241.07;;;101.97;;
21639;SDS011;10981;45.462;10.974;2023-02-18T10:03:40;229.00;;;102.63;;
21639;SDS011;10981;45.462;10.974;2023-02-18T10:06:31;227.43;;;101.47;;
21639;SDS011;10981;45.462;10.974;2023-02-18T10:08:59;245.77;;;104.32;;
21639;SDS011;10981;45.462;10.974;2023-02-18T10:11:33;237.38;;;101.80;;
21639;SDS011;10981;45.462;10.974;2023-02-18T10:14:07;239.27;;;103.40;;
21639;SDS011;10981;45.462;10.974;2023-02-18T10:16:35;232.30;;;104.15;;
21639;SDS011;10981;45.462;10.974;2023-02-18T10:19:05;249.38;;;105.80;;
21639;SDS011;10981;45.462;10.974;2023-02-18T10:21:39;252.68;;;104.72;;
21639;SDS011;10981;45.462;10.974;2023-02-18T10:24:28;242.80;;;105.07;;
21639;SDS011;10981;45.462;10.974;2023-02-18T10:26:55;232.82;;;103.05;;
21639;SDS011;10981;45.462;10.974;2023-02-18T10:29:23;237.57;;;106.20;;
21639;SDS011;10981;45.462;10.974;2023-02-18T10:31:54;239.60;;;106.22;;
21639;SDS011;10981;45.462;10.974;2023-02-18T10:34:29;226.55;;;107.00;;
21639;SDS011;10981;45.462;10.974;2023-02-18T10:37:00;239.82;;;105.45;;
21639;SDS011;10981;45.462;10.974;2023-02-18T10:45:08;221.00;;;102.72;;
21639;SDS011;10981;45.462;10.974;2023-02-18T10:50:09;245.88;;;105.75;;
21639;SDS011;10981;45.462;10.974;2023-02-18T10:52:40;220.75;;;101.18;;
21639;SDS011;10981;45.462;10.974;2023-02-18T10:55:11;226.77;;;101.10;;
21639;SDS011;10981;45.462;10.974;2023-02-18T10:57:51;237.00;;;104.57;;
21639;SDS011;10981;45.462;10.974;2023-02-18T11:00:20;228.02;;;101.63;;
21639;SDS011;10981;45.462;10.974;2023-02-18T11:05:30;234.80;;;107.38;;
21639;SDS011;10981;45.462;10.974;2023-02-18T11:08:02;235.60;;;106.60;;
21639;SDS011;10981;45.462;10.974;2023-02-18T11:10:34;257.45;;;111.93;;
21639;SDS011;10981;45.462;10.974;2023-02-18T11:13:06;232.80;;;103.70;;
21639;SDS011;10981;45.462;10.974;2023-02-18T11:15:34;236.68;;;106.60;;
21639;SDS011;10981;45.462;10.974;2023-02-18T11:18:12;239.15;;;103.93;;
21639;SDS011;10981;45.462;10.974;2023-02-18T11:20:41;245.45;;;108.05;;
21639;SDS011;10981;45.462;10.974;2023-02-18T11:23:22;243.13;;;110.22;;
21639;SDS011;10981;45.462;10.974;2023-02-18T11:26:12;237.45;;;108.20;;
21639;SDS011;10981;45.462;10.974;2023-02-18T11:28:43;241.93;;;107.78;;
21639;SDS011;10981;45.462;10.974;2023-02-18T11:31:20;249.52;;;109.63;;
21639;SDS011;10981;45.462;10.974;2023-02-18T11:33:50;238.45;;;112.00;;
21639;SDS011;10981;45.462;10.974;2023-02-18T11:36:21;244.30;;;109.55;;
21639;SDS011;10981;45.462;10.974;2023-02-18T11:39:35;243.45;;;109.82;;
21639;SDS011;10981;45.462;10.974;2023-02-18T11:41:52;247.40;;;109.00;;
21639;SDS011;10981;45.462;10.974;2023-02-18T11:49:35;260.15;;;113.20;;
21639;SDS011;10981;45.462;10.974;2023-02-18T11:54:37;246.43;;;108.82;;
21639;SDS011;10981;45.462;10.974;2023-02-18T11:57:05;253.50;;;110.82;;
21639;SDS011;10981;45.462;10.974;2023-02-18T11:59:37;245.75;;;109.28;;
21639;SDS011;10981;45.462;10.974;2023-02-18T12:04:44;244.52;;;106.82;;
21639;SDS011;10981;45.462;10.974;2023-02-18T12:07:19;248.10;;;109.25;;
21639;SDS011;10981;45.462;10.974;2023-02-18T12:10:00;243.77;;;108.88;;
21639;SDS011;10981;45.462;10.974;2023-02-18T12:12:31;249.38;;;109.30;;
21639;SDS011;10981;45.462;10.974;2023-02-18T12:15:00;241.45;;;106.93;;
21639;SDS011;10981;45.462;10.974;2023-02-18T12:20:06;242.75;;;104.47;;
21639;SDS011;10981;45.462;10.974;2023-02-18T12:22:43;232.10;;;107.57;;
21639;SDS011;10981;45.462;10.974;2023-02-18T12:30:41;231.13;;;103.20;;
21639;SDS011;10981;45.462;10.974;2023-02-18T12:33:33;235.00;;;102.70;;
21639;SDS011;10981;45.462;10.974;2023-02-18T12:36:09;239.98;;;103.82;;
21639;SDS011;10981;45.462;10.974;2023-02-18T12:43:51;230.93;;;99.57;;
21639;SDS011;10981;45.462;10.974;2023-02-18T13:01:38;219.50;;;95.50;;
21639;SDS011;10981;45.462;10.974;2023-02-18T13:14:41;217.48;;;97.22;;
21639;SDS011;10981;45.462;10.974;2023-02-18T13:17:10;227.25;;;96.30;;
21639;SDS011;10981;45.462;10.974;2023-02-18T13:20:00;213.48;;;95.95;;
21639;SDS011;10981;45.462;10.974;2023-02-18T13:22:28;221.30;;;98.65;;
21639;SDS011;10981;45.462;10.974;2023-02-18T13:24:56;219.60;;;97.28;;
21639;SDS011;10981;45.462;10.974;2023-02-18T13:32:37;220.80;;;94.57;;
21639;SDS011;10981;45.462;10.974;2023-02-18T13:40:02;209.25;;;95.50;;
21639;SDS011;10981;45.462;10.974;2023-02-18T13:42:34;216.57;;;95.57;;
21639;SDS011;10981;45.462;10.974;2023-02-18T13:45:04;215.73;;;98.57;;
21639;SDS011;10981;45.462;10.974;2023-02-18T13:52:42;205.32;;;96.85;;
21639;SDS011;10981;45.462;10.974;2023-02-18T13:55:17;201.00;;;90.88;;
21639;SDS011;10981;45.462;10.974;2023-02-18T13:57:46;203.52;;;94.05;;
21639;SDS011;10981;45.462;10.974;2023-02-18T14:00:23;200.80;;;91.47;;
21639;SDS011;10981;45.462;10.974;2023-02-18T14:02:55;200.95;;;90.85;;
21639;SDS011;10981;45.462;10.974;2023-02-18T14:05:24;200.15;;;91.95;;
21639;SDS011;10981;45.462;10.974;2023-02-18T14:08:10;202.02;;;91.60;;
21639;SDS011;10981;45.462;10.974;2023-02-18T14:10:38;201.65;;;90.13;;
21639;SDS011;10981;45.462;10.974;2023-02-18T14:13:17;207.32;;;93.68;;
21639;SDS011;10981;45.462;10.974;2023-02-18T14:15:48;187.95;;;87.47;;
21639;SDS011;10981;45.462;10.974;2023-02-18T14:20:50;189.30;;;87.53;;
21639;SDS011;10981;45.462;10.974;2023-02-18T14:25:50;200.50;;;86.32;;
21639;SDS011;10981;45.462;10.974;2023-02-18T14:33:31;197.32;;;92.70;;
21639;SDS011;10981;45.462;10.974;2023-02-18T14:44:03;170.02;;;81.72;;
21639;SDS011;10981;45.462;10.974;2023-02-18T14:51:54;172.82;;;81.00;;
21639;SDS011;10981;45.462;10.974;2023-02-18T14:54:23;167.80;;;79.50;;
21639;SDS011;10981;45.462;10.974;2023-02-18T14:56:59;170.52;;;81.85;;
21639;SDS011;10981;45.462;10.974;2023-02-18T14:59:28;171.18;;;77.57;;
21639;SDS011;10981;45.462;10.974;2023-02-18T15:01:57;179.63;;;81.55;;
21639;SDS011;10981;45.462;10.974;2023-02-18T15:04:25;177.02;;;82.57;;
21639;SDS011;10981;45.462;10.974;2023-02-18T15:07:03;172.00;;;81.63;;
21639;SDS011;10981;45.462;10.974;2023-02-18T15:09:31;172.10;;;80.43;;
21639;SDS011;10981;45.462;10.974;2023-02-18T15:12:00;181.50;;;80.78;;
21639;SDS011;10981;45.462;10.974;2023-02-18T15:14:35;180.23;;;81.63;;
21639;SDS011;10981;45.462;10.974;2023-02-18T15:17:06;182.95;;;84.45;;
21639;SDS011;10981;45.462;10.974;2023-02-18T15:19:38;187.65;;;84.95;;
21639;SDS011;10981;45.462;10.974;2023-02-18T15:22:13;193.55;;;84.97;;
21639;SDS011;10981;45.462;10.974;2023-02-18T15:24:42;173.70;;;82.43;;
21639;SDS011;10981;45.462;10.974;2023-02-18T15:27:11;187.80;;;83.18;;
21639;SDS011;10981;45.462;10.974;2023-02-18T15:29:40;181.27;;;83.65;;
21639;SDS011;10981;45.462;10.974;2023-02-18T15:37:31;173.85;;;81.60;;
21639;SDS011;10981;45.462;10.974;2023-02-18T15:39:59;185.45;;;84.03;;
21639;SDS011;10981;45.462;10.974;2023-02-18T15:42:30;201.38;;;91.68;;
21639;SDS011;10981;45.462;10.974;2023-02-18T15:45:22;198.80;;;90.93;;
21639;SDS011;10981;45.462;10.974;2023-02-18T15:47:49;199.13;;;88.95;;
21639;SDS011;10981;45.462;10.974;2023-02-18T15:50:22;198.95;;;87.07;;
21639;SDS011;10981;45.462;10.974;2023-02-18T15:52:52;219.30;;;92.10;;
21639;SDS011;10981;45.462;10.974;2023-02-18T15:55:24;213.15;;;91.80;;
21639;SDS011;10981;45.462;10.974;2023-02-18T15:57:52;197.45;;;89.35;;
21639;SDS011;10981;45.462;10.974;2023-02-18T16:00:27;203.15;;;92.28;;
21639;SDS011;10981;45.462;10.974;2023-02-18T16:03:03;204.70;;;89.32;;
21639;SDS011;10981;45.462;10.974;2023-02-18T16:05:37;220.35;;;91.43;;
21639;SDS011;10981;45.462;10.974;2023-02-18T16:08:09;205.73;;;87.25;;
21639;SDS011;10981;45.462;10.974;2023-02-18T16:10:49;199.88;;;89.05;;
21639;SDS011;10981;45.462;10.974;2023-02-18T16:13:20;191.57;;;85.63;;
21639;SDS011;10981;45.462;10.974;2023-02-18T16:15:51;199.73;;;87.32;;
21639;SDS011;10981;45.462;10.974;2023-02-18T16:18:23;192.68;;;85.63;;
21639;SDS011;10981;45.462;10.974;2023-02-18T16:20:56;187.25;;;84.75;;
21639;SDS011;10981;45.462;10.974;2023-02-18T16:23:28;205.43;;;88.70;;
21639;SDS011;10981;45.462;10.974;2023-02-18T16:25:56;190.32;;;84.72;;
21639;SDS011;10981;45.462;10.974;2023-02-18T16:28:35;195.65;;;84.28;;
21639;SDS011;10981;45.462;10.974;2023-02-18T16:31:03;199.90;;;87.05;;
21639;SDS011;10981;45.462;10.974;2023-02-18T16:33:31;198.10;;;84.43;;
21639;SDS011;10981;45.462;10.974;2023-02-18T16:35:59;189.10;;;83.15;;